Time;durP1;ratioP1;P1;durP2;ratioP2;P2;SDS_P1;SDS_P2;PMS_P1;PMS_P2;Temp;Humidity;BMP_temperature;BMP_pressure;BME280_temperature;BME280_humidity;BME280_pressure;Samples;Min_cycle;Max_cycle;Signal;HPM_P1;HPM_P2
2023/06/08 00:00:41;0.00;0.00;0.62;0.00;0.00;0.62;3.80;3.40;;;29.50;24.70;;;;;;2257240;61;20463;-66
2023/06/08 00:03:26;0.00;0.00;0.62;0.00;0.00;0.62;3.70;3.30;;;29.50;24.70;;;;;;2254139;61;20359;-61
2023/06/08 00:06:13;0.00;0.00;0.62;0.00;0.00;0.62;5.00;3.17;;;29.40;24.60;;;;;;2257498;61;20920;-60
2023/06/08 00:08:58;0.00;0.00;0.62;0.00;0.00;0.62;3.43;3.13;;;29.50;24.70;;;;;;2257399;61;20398;-61
2023/06/08 00:11:44;0.00;0.00;0.62;0.00;0.00;0.62;3.73;3.37;;;29.50;24.70;;;;;;2257411;61;20928;-62
2023/06/08 00:14:30;0.00;0.00;0.62;0.00;0.00;0.62;3.33;3.00;;;29.40;24.60;;;;;;2254109;61;20366;-61
2023/06/08 00:17:14;0.00;0.00;0.62;0.00;0.00;0.62;3.90;3.30;;;29.40;24.60;;;;;;2254117;61;20861;-60
2023/06/08 00:19:59;0.00;0.00;0.62;0.00;0.00;0.62;4.37;3.83;;;29.40;24.60;;;;;;2257396;61;20410;-61
2023/06/08 00:22:47;0.00;0.00;0.62;0.00;0.00;0.62;4.00;3.60;;;29.40;24.60;;;;;;2254031;61;20367;-61
2023/06/08 00:25:32;0.00;0.00;0.62;0.00;0.00;0.62;3.30;3.03;;;29.50;24.70;;;;;;2257791;61;20367;-61
2023/06/08 00:28:20;0.00;0.00;0.62;0.00;0.00;0.62;4.33;3.50;;;29.40;24.60;;;;;;2257643;61;20784;-61
2023/06/08 00:31:06;0.00;0.00;0.62;0.00;0.00;0.62;4.80;3.90;;;29.40;24.60;;;;;;2253808;61;20415;-64
2023/06/08 00:33:51;0.00;0.00;0.62;0.00;0.00;0.62;3.50;3.20;;;29.40;24.60;;;;;;2257283;61;20363;-61
2023/06/08 00:36:37;0.00;0.00;0.62;0.00;0.00;0.62;3.67;3.30;;;29.50;24.70;;;;;;2254447;61;20394;-60
2023/06/08 00:39:24;0.00;0.00;0.62;0.00;0.00;0.62;3.60;3.30;;;29.40;24.60;;;;;;2257726;61;20511;-60
2023/06/08 00:42:09;0.00;0.00;0.62;0.00;0.00;0.62;3.70;3.33;;;29.50;24.70;;;;;;2256940;61;20386;-60
2023/06/08 00:44:56;0.00;0.00;0.62;0.00;0.00;0.62;3.67;3.10;;;29.50;24.60;;;;;;2257136;61;20362;-61
2023/06/08 00:47:41;0.00;0.00;0.62;0.00;0.00;0.62;4.70;2.87;;;29.50;24.50;;;;;;2257349;61;20370;-61
2023/06/08 00:50:26;0.00;0.00;0.62;0.00;0.00;0.62;3.97;3.30;;;29.40;24.50;;;;;;2254334;61;20437;-60
2023/06/08 00:53:11;0.00;0.00;0.62;0.00;0.00;0.62;3.93;3.30;;;29.50;24.50;;;;;;2253831;61;20359;-61
2023/06/08 00:55:57;0.00;0.00;0.62;0.00;0.00;0.62;4.27;3.87;;;29.50;24.50;;;;;;2257699;61;20777;-61
2023/06/08 00:58:46;0.00;0.00;0.62;0.00;0.00;0.62;3.63;3.10;;;29.40;24.40;;;;;;2251320;61;20382;-62
2023/06/08 01:01:35;0.00;0.00;0.62;0.00;0.00;0.62;4.80;3.57;;;29.50;24.40;;;;;;2254544;61;20414;-61
2023/06/08 01:04:23;0.00;0.00;0.62;0.00;0.00;0.62;4.10;3.47;;;29.40;24.30;;;;;;2257175;61;20367;-61
2023/06/08 01:07:19;0.00;0.00;0.62;0.00;0.00;0.62;4.03;3.60;;;29.40;24.40;;;;;;2257014;61;20406;-61
2023/06/08 01:10:12;0.00;0.00;0.62;0.00;0.00;0.62;5.00;3.30;;;29.40;24.30;;;;;;2253904;61;20402;-61
2023/06/08 01:13:07;0.00;0.00;0.62;0.00;0.00;0.62;3.27;2.97;;;29.50;24.30;;;;;;2256873;61;20498;-61
2023/06/08 01:16:00;0.00;0.00;0.62;0.00;0.00;0.62;4.93;3.80;;;29.40;24.30;;;;;;2257464;61;20387;-61
2023/06/08 01:18:47;0.00;0.00;0.62;0.00;0.00;0.62;4.83;3.70;;;29.50;24.30;;;;;;2257015;61;20442;-62
2023/06/08 01:21:54;0.00;0.00;0.62;0.00;0.00;0.62;5.10;3.83;;;29.40;24.20;;;;;;2254097;61;20391;-61
2023/06/08 01:24:49;0.00;0.00;0.62;0.00;0.00;0.62;4.30;3.30;;;29.40;24.20;;;;;;2253814;61;20359;-62
2023/06/08 01:27:36;0.00;0.00;0.62;0.00;0.00;0.62;4.40;3.77;;;29.50;24.30;;;;;;2257214;61;20406;-61
2023/06/08 01:30:21;0.00;0.00;0.62;0.00;0.00;0.62;4.13;3.33;;;29.50;24.20;;;;;;2254091;61;20438;-61
2023/06/08 01:33:08;0.00;0.00;0.62;0.00;0.00;0.62;5.43;4.00;;;29.40;24.20;;;;;;2256651;61;20522;-60
2023/06/08 01:35:59;0.00;0.00;0.62;0.00;0.00;0.62;4.23;3.40;;;29.40;24.20;;;;;;2257007;61;20417;-61
2023/06/08 01:38:57;0.00;0.00;0.62;0.00;0.00;0.62;3.90;3.37;;;29.40;24.20;;;;;;2254417;61;20422;-61
2023/06/08 01:41:47;0.00;0.00;0.62;0.00;0.00;0.62;3.60;3.30;;;29.40;24.10;;;;;;2256756;61;20387;-62
2023/06/08 01:44:36;0.00;0.00;0.62;0.00;0.00;0.62;5.50;3.80;;;29.40;24.10;;;;;;2257188;61;20359;-61
2023/06/08 01:47:24;0.00;0.00;0.62;0.00;0.00;0.62;3.33;2.97;;;29.40;24.10;;;;;;2254408;61;20383;-62
2023/06/08 01:50:10;0.00;0.00;0.62;0.00;0.00;0.62;3.93;3.53;;;29.40;24.10;;;;;;2257149;61;20362;-61
2023/06/08 01:52:58;0.00;0.00;0.62;0.00;0.00;0.62;4.13;3.13;;;29.40;24.10;;;;;;2254546;61;20498;-61
2023/06/08 01:55:47;0.00;0.00;0.62;0.00;0.00;0.62;3.60;3.30;;;29.40;24.00;;;;;;2254757;61;20357;-60
2023/06/08 01:58:34;0.00;0.00;0.62;0.00;0.00;0.62;3.77;3.47;;;29.40;24.00;;;;;;2254428;61;20456;-60
2023/06/08 02:01:22;0.00;0.00;0.62;0.00;0.00;0.62;4.20;3.50;;;29.40;24.00;;;;;;2254960;61;20394;-61
2023/06/08 02:04:07;0.00;0.00;0.62;0.00;0.00;0.62;4.30;3.90;;;29.30;24.00;;;;;;2255033;61;20753;-60
2023/06/08 02:06:51;0.00;0.00;0.62;0.00;0.00;0.62;4.70;3.57;;;29.30;24.00;;;;;;2254738;61;20359;-62
2023/06/08 02:09:36;0.00;0.00;0.62;0.00;0.00;0.62;5.53;3.27;;;29.30;24.00;;;;;;2257813;61;20370;-62
2023/06/08 02:12:21;0.00;0.00;0.62;0.00;0.00;0.62;6.37;3.40;;;29.30;24.00;;;;;;2256688;61;20382;-62
2023/06/08 02:15:08;0.00;0.00;0.62;0.00;0.00;0.62;3.83;3.40;;;29.30;24.00;;;;;;2257518;61;20362;-61
2023/06/08 02:17:53;0.00;0.00;0.62;0.00;0.00;0.62;5.30;3.57;;;29.30;24.00;;;;;;2257282;61;20795;-61
2023/06/08 02:20:39;0.00;0.00;0.62;0.00;0.00;0.62;4.20;3.20;;;29.30;24.00;;;;;;2257457;61;20419;-61
2023/06/08 02:23:23;0.00;0.00;0.62;0.00;0.00;0.62;5.13;3.30;;;29.30;24.00;;;;;;2253833;61;20363;-62
2023/06/08 02:26:08;0.00;0.00;0.62;0.00;0.00;0.62;4.43;3.17;;;29.30;24.00;;;;;;2254145;61;20418;-64
2023/06/08 02:28:53;0.00;0.00;0.62;0.00;0.00;0.62;4.40;3.40;;;29.30;24.00;;;;;;2257243;61;20359;-61
2023/06/08 02:31:39;0.00;0.00;0.62;0.00;0.00;0.62;3.87;3.47;;;29.30;24.00;;;;;;2253857;61;20418;-62
2023/06/08 02:34:25;0.00;0.00;0.62;0.00;0.00;0.62;4.20;3.60;;;29.20;23.90;;;;;;2254069;61;20366;-62
2023/06/08 02:37:10;0.00;0.00;0.62;0.00;0.00;0.62;4.17;3.77;;;29.20;23.90;;;;;;2257048;61;20390;-61
2023/06/08 02:39:55;0.00;0.00;0.62;0.00;0.00;0.62;5.43;3.87;;;29.30;24.00;;;;;;2254156;61;20379;-59
2023/06/08 02:42:39;0.00;0.00;0.62;0.00;0.00;0.62;3.90;3.27;;;29.30;24.00;;;;;;2256876;61;20355;-61
2023/06/08 02:45:26;0.00;0.00;0.62;0.00;0.00;0.62;3.87;3.33;;;29.20;23.90;;;;;;2253977;61;20371;-61
2023/06/08 02:48:15;0.00;0.00;0.62;0.00;0.00;0.62;4.43;4.03;;;29.20;23.90;;;;;;2254015;61;20418;-62
2023/06/08 02:51:00;0.00;0.00;0.62;0.00;0.00;0.62;3.73;3.33;;;29.20;23.90;;;;;;2257190;61;20383;-62
2023/06/08 02:53:45;0.00;0.00;0.62;0.00;0.00;0.62;5.10;3.63;;;29.20;23.90;;;;;;2253550;61;20431;-61
2023/06/08 02:56:30;0.00;0.00;0.62;0.00;0.00;0.62;4.20;3.70;;;29.20;23.90;;;;;;2257055;61;20931;-62
2023/06/08 02:59:16;0.00;0.00;0.62;0.00;0.00;0.62;4.93;3.43;;;29.20;23.90;;;;;;2254078;61;20389;-60
2023/06/08 03:02:04;0.00;0.00;0.62;0.00;0.00;0.62;4.33;3.57;;;29.20;23.90;;;;;;2253688;61;20437;-62
2023/06/08 03:04:52;0.00;0.00;0.62;0.00;0.00;0.62;3.67;3.20;;;29.20;24.00;;;;;;2253744;61;20414;-61
2023/06/08 03:07:40;0.00;0.00;0.62;0.00;0.00;0.62;4.40;3.20;;;29.20;23.90;;;;;;2253838;61;20362;-60
2023/06/08 03:10:26;0.00;0.00;0.62;0.00;0.00;0.62;4.27;3.77;;;29.10;23.90;;;;;;2254163;61;20387;-62
2023/06/08 03:13:11;0.00;0.00;0.62;0.00;0.00;0.62;4.63;3.60;;;29.10;23.90;;;;;;2253378;61;20364;-61
2023/06/08 03:15:56;0.00;0.00;0.62;0.00;0.00;0.62;4.00;3.60;;;29.20;23.90;;;;;;2257296;61;20390;-62
2023/06/08 03:18:41;0.00;0.00;0.62;0.00;0.00;0.62;5.20;3.47;;;29.20;23.90;;;;;;2254194;61;20410;-62
2023/06/08 03:21:28;0.00;0.00;0.62;0.00;0.00;0.62;6.77;3.57;;;29.10;23.90;;;;;;2253796;61;20390;-62
2023/06/08 03:24:15;0.00;0.00;0.62;0.00;0.00;0.62;5.00;3.80;;;29.10;23.90;;;;;;2253661;61;20366;-62
2023/06/08 03:27:01;0.00;0.00;0.62;0.00;0.00;0.62;5.87;3.90;;;29.10;23.90;;;;;;2253962;61;20386;-61
2023/06/08 03:29:47;0.00;0.00;0.62;0.00;0.00;0.62;3.20;2.90;;;29.10;23.90;;;;;;2254554;61;20407;-61
2023/06/08 03:32:33;0.00;0.00;0.62;0.00;0.00;0.62;3.73;3.33;;;29.10;23.90;;;;;;2253892;61;20391;-61
2023/06/08 03:35:18;0.00;0.00;0.62;0.00;0.00;0.62;4.87;3.80;;;29.10;23.90;;;;;;2253869;61;20409;-61
2023/06/08 03:38:09;0.00;0.00;0.62;0.00;0.00;0.62;5.57;3.77;;;29.10;23.90;;;;;;2254006;61;20419;-61
2023/06/08 03:40:55;0.00;0.00;0.62;0.00;0.00;0.62;4.20;3.30;;;29.10;23.90;;;;;;2254040;61;20518;-62
2023/06/08 03:43:40;0.00;0.00;0.62;0.00;0.00;0.62;4.00;3.30;;;29.10;24.40;;;;;;2254145;61;20390;-61
2023/06/08 03:46:25;0.00;0.00;0.62;0.00;0.00;0.62;5.00;4.00;;;29.10;23.90;;;;;;2254117;61;20362;-62
2023/06/08 03:49:11;0.00;0.00;0.62;0.00;0.00;0.62;3.90;3.37;;;29.10;23.90;;;;;;2253817;61;21004;-61
2023/06/08 03:51:57;0.00;0.00;0.62;0.00;0.00;0.62;3.80;3.50;;;29.10;23.90;;;;;;2253829;61;20386;-62
2023/06/08 03:54:43;0.00;0.00;0.62;0.00;0.00;0.62;4.23;3.53;;;29.10;23.90;;;;;;2253675;61;20873;-61
2023/06/08 03:57:28;0.00;0.00;0.62;0.00;0.00;0.62;5.37;4.50;;;29.10;23.90;;;;;;2253417;61;20378;-61
2023/06/08 04:00:15;0.00;0.00;0.62;0.00;0.00;0.62;4.10;3.70;;;29.00;23.90;;;;;;2254632;61;20435;-61
2023/06/08 04:03:00;0.00;0.00;0.62;0.00;0.00;0.62;4.37;3.83;;;29.00;23.90;;;;;;2254185;61;20394;-61
2023/06/08 04:05:47;0.00;0.00;0.62;0.00;0.00;0.62;4.43;3.33;;;29.00;23.90;;;;;;2257812;61;20363;-61
2023/06/08 04:08:32;0.00;0.00;0.62;0.00;0.00;0.62;5.67;4.33;;;29.00;23.90;;;;;;2254430;61;20355;-61
2023/06/08 04:11:18;0.00;0.00;0.62;0.00;0.00;0.62;5.80;4.10;;;29.00;23.90;;;;;;2254727;61;20394;-62
2023/06/08 04:14:03;0.00;0.00;0.62;0.00;0.00;0.62;4.77;3.63;;;29.00;23.90;;;;;;2253874;61;20367;-61
2023/06/08 04:16:50;0.00;0.00;0.62;0.00;0.00;0.62;4.23;3.20;;;29.00;24.00;;;;;;2254559;61;20394;-62
2023/06/08 04:19:36;0.00;0.00;0.62;0.00;0.00;0.62;4.20;3.80;;;29.00;24.00;;;;;;2254836;61;20928;-61
2023/06/08 04:22:20;0.00;0.00;0.62;0.00;0.00;0.62;4.03;3.13;;;29.00;24.00;;;;;;2254099;61;20387;-63
2023/06/08 04:25:09;0.00;0.00;0.62;0.00;0.00;0.62;4.60;3.80;;;29.00;24.00;;;;;;2255054;61;20394;-61
2023/06/08 04:27:56;0.00;0.00;0.62;0.00;0.00;0.62;5.80;3.57;;;29.00;24.00;;;;;;2254450;61;20383;-61
2023/06/08 04:30:44;0.00;0.00;0.62;0.00;0.00;0.62;3.37;3.07;;;29.00;24.00;;;;;;2254686;61;20415;-60
2023/06/08 04:33:28;0.00;0.00;0.62;0.00;0.00;0.62;4.07;3.67;;;29.00;24.00;;;;;;2254291;61;20377;-61
2023/06/08 04:36:16;0.00;0.00;0.62;0.00;0.00;0.62;5.73;3.97;;;29.00;24.00;;;;;;2254445;61;20435;-61
2023/06/08 04:39:01;0.00;0.00;0.62;0.00;0.00;0.62;4.47;3.70;;;29.00;24.00;;;;;;2254644;61;20390;-61
2023/06/08 04:41:47;0.00;0.00;0.62;0.00;0.00;0.62;4.43;3.77;;;29.00;24.00;;;;;;2254253;61;20386;-61
2023/06/08 04:44:34;0.00;0.00;0.62;0.00;0.00;0.62;5.07;3.90;;;28.90;23.90;;;;;;2254571;61;20367;-61
2023/06/08 04:47:20;0.00;0.00;0.62;0.00;0.00;0.62;5.07;3.60;;;28.90;24.00;;;;;;2254243;61;20490;-60
2023/06/08 04:50:07;0.00;0.00;0.62;0.00;0.00;0.62;4.00;3.13;;;28.90;24.00;;;;;;2257473;61;20362;-61
2023/06/08 04:52:55;0.00;0.00;0.62;0.00;0.00;0.62;3.60;3.20;;;28.90;24.00;;;;;;2254101;61;20900;-61
2023/06/08 04:55:45;0.00;0.00;0.62;0.00;0.00;0.62;4.67;3.60;;;28.90;24.00;;;;;;2254148;61;20456;-61
2023/06/08 04:58:30;0.00;0.00;0.62;0.00;0.00;0.62;5.37;3.80;;;28.90;24.00;;;;;;2257301;61;20789;-61
2023/06/08 05:01:17;0.00;0.00;0.62;0.00;0.00;0.62;5.30;4.07;;;28.90;24.00;;;;;;2257554;61;20387;-61
2023/06/08 05:04:06;0.00;0.00;0.62;0.00;0.00;0.62;5.03;3.40;;;28.90;24.00;;;;;;2254230;61;20386;-61
2023/06/08 05:06:52;0.00;0.00;0.62;0.00;0.00;0.62;4.37;3.57;;;28.90;24.00;;;;;;2254597;61;20375;-61
2023/06/08 05:09:36;0.00;0.00;0.62;0.00;0.00;0.62;4.50;3.80;;;28.90;24.00;;;;;;2254184;61;20439;-61
2023/06/08 05:12:21;0.00;0.00;0.62;0.00;0.00;0.62;4.90;3.70;;;28.90;24.00;;;;;;2254433;61;20383;-61
2023/06/08 05:15:07;0.00;0.00;0.62;0.00;0.00;0.62;5.10;4.17;;;28.90;24.00;;;;;;2254511;61;20362;-61
2023/06/08 05:17:53;0.00;0.00;0.62;0.00;0.00;0.62;5.43;3.90;;;28.90;24.10;;;;;;2257851;61;20421;-59
2023/06/08 05:20:38;0.00;0.00;0.62;0.00;0.00;0.62;3.80;3.40;;;28.80;24.00;;;;;;2254335;61;20797;-60
2023/06/08 05:23:23;0.00;0.00;0.62;0.00;0.00;0.62;4.00;3.57;;;28.80;24.00;;;;;;2257291;61;20406;-61
2023/06/08 05:26:08;0.00;0.00;0.62;0.00;0.00;0.62;5.53;3.80;;;28.90;24.10;;;;;;2257681;61;20386;-61
2023/06/08 05:28:52;0.00;0.00;0.62;0.00;0.00;0.62;4.07;3.67;;;28.80;24.10;;;;;;2257483;61;20378;-62
2023/06/08 05:31:39;0.00;0.00;0.62;0.00;0.00;0.62;4.30;3.90;;;28.80;24.10;;;;;;2257043;61;20547;-61
2023/06/08 05:34:25;0.00;0.00;0.62;0.00;0.00;0.62;5.57;4.17;;;28.80;24.10;;;;;;2257348;61;20399;-61
2023/06/08 05:37:10;0.00;0.00;0.62;0.00;0.00;0.62;4.20;3.80;;;28.80;24.10;;;;;;2254241;61;20661;-61
2023/06/08 05:39:55;0.00;0.00;0.62;0.00;0.00;0.62;5.17;3.90;;;28.80;24.10;;;;;;2254532;61;20470;-60
2023/06/08 05:42:40;0.00;0.00;0.62;0.00;0.00;0.62;6.10;4.43;;;28.80;24.10;;;;;;2254234;61;20359;-61
2023/06/08 05:45:25;0.00;0.00;0.62;0.00;0.00;0.62;5.13;4.10;;;28.80;24.20;;;;;;2254518;61;20359;-62
2023/06/08 05:48:10;0.00;0.00;0.62;0.00;0.00;0.62;4.20;3.80;;;28.80;24.20;;;;;;2257337;61;20410;-61
2023/06/08 05:50:56;0.00;0.00;0.62;0.00;0.00;0.62;4.63;4.13;;;28.80;24.20;;;;;;2257882;61;20385;-61
2023/06/08 05:53:41;0.00;0.00;0.62;0.00;0.00;0.62;4.70;3.97;;;28.80;24.20;;;;;;2254683;61;20498;-61
2023/06/08 05:56:27;0.00;0.00;0.62;0.00;0.00;0.62;4.00;3.60;;;28.80;24.20;;;;;;2254512;61;20355;-61
2023/06/08 05:59:12;0.00;0.00;0.62;0.00;0.00;0.62;6.50;4.40;;;28.80;24.20;;;;;;2257225;61;20896;-61
2023/06/08 06:01:56;0.00;0.00;0.62;0.00;0.00;0.62;5.50;3.83;;;28.80;24.20;;;;;;2253899;61;20469;-60
2023/06/08 06:04:41;0.00;0.00;0.62;0.00;0.00;0.62;8.27;5.10;;;28.80;24.30;;;;;;2254421;61;20367;-61
2023/06/08 06:07:27;0.00;0.00;0.62;0.00;0.00;0.62;4.70;4.00;;;28.80;24.30;;;;;;2257473;61;20434;-62
2023/06/08 06:10:12;0.00;0.00;0.62;0.00;0.00;0.62;3.73;3.43;;;28.80;24.30;;;;;;2253850;61;21064;-61
2023/06/08 06:12:56;0.00;0.00;0.62;0.00;0.00;0.62;4.87;4.00;;;28.80;24.30;;;;;;2257143;61;20413;-61
2023/06/08 06:15:41;0.00;0.00;0.62;0.00;0.00;0.62;4.30;4.00;;;28.70;24.20;;;;;;2254703;61;20366;-60
2023/06/08 06:18:26;0.00;0.00;0.62;0.00;0.00;0.62;4.97;3.90;;;28.70;24.20;;;;;;2257576;61;20398;-61
2023/06/08 06:21:11;0.00;0.00;0.62;0.00;0.00;0.62;4.27;3.40;;;28.80;24.30;;;;;;2256937;61;20993;-61
2023/06/08 06:23:57;0.00;0.00;0.62;0.00;0.00;0.62;4.40;3.90;;;28.70;24.20;;;;;;2253933;61;20366;-61
2023/06/08 06:26:42;0.00;0.00;0.62;0.00;0.00;0.62;5.03;4.53;;;28.70;24.20;;;;;;2257428;61;20367;-60
2023/06/08 06:29:26;0.00;0.00;0.62;0.00;0.00;0.62;4.67;4.07;;;28.80;24.30;;;;;;2257263;61;20772;-60
2023/06/08 06:32:12;0.00;0.00;0.62;0.00;0.00;0.62;4.70;3.97;;;28.70;24.30;;;;;;2253762;61;20410;-61
2023/06/08 06:34:57;0.00;0.00;0.62;0.00;0.00;0.62;4.67;3.70;;;28.70;24.20;;;;;;2257415;61;20375;-61
2023/06/08 06:37:41;0.00;0.00;0.62;0.00;0.00;0.62;5.70;4.57;;;28.80;24.30;;;;;;2254069;61;20449;-61
2023/06/08 06:40:27;0.00;0.00;0.62;0.00;0.00;0.62;4.30;3.90;;;28.70;24.20;;;;;;2257617;61;20434;-61
2023/06/08 06:43:12;0.00;0.00;0.62;0.00;0.00;0.62;4.43;4.03;;;28.70;24.20;;;;;;2257063;61;20450;-61
2023/06/08 06:46:06;0.00;0.00;0.62;0.00;0.00;0.62;4.33;3.93;;;28.70;24.20;;;;;;2254521;61;20383;-61
2023/06/08 06:48:51;0.00;0.00;0.62;0.00;0.00;0.62;4.70;3.80;;;28.70;24.20;;;;;;2257198;61;20435;-61
2023/06/08 06:51:36;0.00;0.00;0.62;0.00;0.00;0.62;4.70;4.23;;;28.70;24.30;;;;;;2257172;61;20402;-61
2023/06/08 06:54:21;0.00;0.00;0.62;0.00;0.00;0.62;5.30;4.40;;;28.70;24.20;;;;;;2257016;61;20363;-61
2023/06/08 06:57:07;0.00;0.00;0.62;0.00;0.00;0.62;4.47;4.07;;;28.70;24.20;;;;;;2257323;61;20433;-61
2023/06/08 06:59:52;0.00;0.00;0.62;0.00;0.00;0.62;6.40;4.07;;;28.70;24.20;;;;;;2254156;61;20362;-61
2023/06/08 07:02:40;0.00;0.00;0.62;0.00;0.00;0.62;5.10;4.17;;;28.70;24.20;;;;;;2253505;61;20391;-61
2023/06/08 07:05:25;0.00;0.00;0.62;0.00;0.00;0.62;4.93;4.43;;;28.70;24.20;;;;;;2257401;61;20358;-61
2023/06/08 07:08:10;0.00;0.00;0.62;0.00;0.00;0.62;5.20;4.50;;;28.70;24.20;;;;;;2253988;61;20366;-62
2023/06/08 07:10:57;0.00;0.00;0.62;0.00;0.00;0.62;5.00;4.50;;;28.70;24.20;;;;;;2254381;61;20405;-63
2023/06/08 07:13:43;0.00;0.00;0.62;0.00;0.00;0.62;4.50;4.10;;;28.70;24.20;;;;;;2256986;61;20390;-62
2023/06/08 07:16:28;0.00;0.00;0.62;0.00;0.00;0.62;4.90;4.40;;;28.70;24.20;;;;;;2253706;61;20391;-61
2023/06/08 07:19:12;0.00;0.00;0.62;0.00;0.00;0.62;4.70;4.17;;;28.70;24.20;;;;;;2256885;61;20401;-61
2023/06/08 07:21:57;0.00;0.00;0.62;0.00;0.00;0.62;4.97;3.93;;;28.70;24.20;;;;;;2257125;61;20410;-62
2023/06/08 07:24:43;0.00;0.00;0.62;0.00;0.00;0.62;4.90;4.40;;;28.70;24.20;;;;;;2256787;61;20398;-61
2023/06/08 07:27:28;0.00;0.00;0.62;0.00;0.00;0.62;4.97;4.47;;;28.70;24.20;;;;;;2253987;61;20367;-62
2023/06/08 07:30:14;0.00;0.00;0.62;0.00;0.00;0.62;4.87;4.37;;;28.70;24.20;;;;;;2257362;61;20881;-62
2023/06/08 07:32:59;0.00;0.00;0.62;0.00;0.00;0.62;5.10;4.63;;;28.70;24.20;;;;;;2254095;61;20483;-62
2023/06/08 07:35:45;0.00;0.00;0.62;0.00;0.00;0.62;4.77;4.13;;;28.70;24.20;;;;;;2254318;61;20370;-62
2023/06/08 07:38:30;0.00;0.00;0.62;0.00;0.00;0.62;5.00;4.20;;;28.70;24.20;;;;;;2257311;61;20378;-61
2023/06/08 07:41:15;0.00;0.00;0.62;0.00;0.00;0.62;4.60;4.17;;;28.70;24.20;;;;;;2257613;61;20410;-62
2023/06/08 07:44:01;0.00;0.00;0.62;0.00;0.00;0.62;4.40;4.00;;;28.70;24.20;;;;;;2257941;61;20431;-61
2023/06/08 07:46:50;0.00;0.00;0.62;0.00;0.00;0.62;4.10;3.70;;;28.70;24.20;;;;;;2257606;61;20363;-60
2023/06/08 07:49:35;0.00;0.00;0.62;0.00;0.00;0.62;3.60;3.30;;;28.70;24.20;;;;;;2258151;61;20450;-61
2023/06/08 07:52:20;0.00;0.00;0.62;0.00;0.00;0.62;3.67;3.37;;;28.70;24.20;;;;;;2257909;61;20381;-61
2023/06/08 07:55:06;0.00;0.00;0.62;0.00;0.00;0.62;3.60;3.30;;;28.70;24.20;;;;;;2258024;61;20834;-62
2023/06/08 07:57:51;0.00;0.00;0.62;0.00;0.00;0.62;4.97;3.70;;;28.70;24.20;;;;;;2255118;61;20390;-62
2023/06/08 08:00:36;0.00;0.00;0.62;0.00;0.00;0.62;4.60;4.10;;;28.60;24.20;;;;;;2258036;61;20382;-62
2023/06/08 08:03:22;0.00;0.00;0.62;0.00;0.00;0.62;4.13;3.73;;;28.70;24.20;;;;;;2257601;61;20383;-62
2023/06/08 08:06:07;0.00;0.00;0.62;0.00;0.00;0.62;5.30;4.80;;;28.70;24.30;;;;;;2254372;61;20385;-61
2023/06/08 08:08:51;0.00;0.00;0.62;0.00;0.00;0.62;4.43;3.97;;;28.70;24.20;;;;;;2257356;61;20383;-62
2023/06/08 08:11:37;0.00;0.00;0.62;0.00;0.00;0.62;4.73;3.73;;;28.70;24.20;;;;;;2257510;61;20414;-62
2023/06/08 08:14:22;0.00;0.00;0.62;0.00;0.00;0.62;4.97;3.83;;;28.70;24.20;;;;;;2254269;61;20386;-62
2023/06/08 08:17:06;0.00;0.00;0.62;0.00;0.00;0.62;4.33;3.77;;;28.70;24.20;;;;;;2257283;61;20363;-62
2023/06/08 08:19:53;0.00;0.00;0.62;0.00;0.00;0.62;4.27;3.87;;;28.70;24.20;;;;;;2257180;61;20398;-61
2023/06/08 08:22:38;0.00;0.00;0.62;0.00;0.00;0.62;4.50;4.10;;;28.70;24.20;;;;;;2257418;61;20935;-61
2023/06/08 08:25:22;0.00;0.00;0.62;0.00;0.00;0.62;4.77;4.30;;;28.70;24.20;;;;;;2254700;61;20390;-62
2023/06/08 08:28:07;0.00;0.00;0.62;0.00;0.00;0.62;3.60;3.30;;;28.70;24.30;;;;;;2257675;61;20355;-61
2023/06/08 08:30:51;0.00;0.00;0.62;0.00;0.00;0.62;4.30;3.93;;;28.70;24.20;;;;;;2256646;61;20387;-61
2023/06/08 08:33:36;0.00;0.00;0.62;0.00;0.00;0.62;5.63;4.33;;;28.70;24.20;;;;;;2254111;61;20443;-63
2023/06/08 08:36:22;0.00;0.00;0.62;0.00;0.00;0.62;4.63;3.80;;;28.70;24.20;;;;;;2257350;61;20455;-62
2023/06/08 08:39:09;0.00;0.00;0.62;0.00;0.00;0.62;5.23;4.00;;;28.70;24.20;;;;;;2254149;61;20395;-61
2023/06/08 08:41:59;0.00;0.00;0.62;0.00;0.00;0.62;3.90;3.40;;;28.70;24.20;;;;;;2257220;61;20414;-62
2023/06/08 08:44:47;0.00;0.00;0.62;0.00;0.00;0.62;4.70;4.30;;;28.70;24.20;;;;;;2257336;61;20359;-62
2023/06/08 08:47:33;0.00;0.00;0.62;0.00;0.00;0.62;4.40;4.00;;;28.70;24.20;;;;;;2257299;61;20442;-64
2023/06/08 08:50:19;0.00;0.00;0.62;0.00;0.00;0.62;5.47;4.53;;;28.70;24.20;;;;;;2254209;61;20366;-62
2023/06/08 08:53:06;0.00;0.00;0.62;0.00;0.00;0.62;4.53;4.13;;;28.70;24.20;;;;;;2249635;61;20459;-60
2023/06/08 08:55:52;0.00;0.00;0.62;0.00;0.00;0.62;4.50;4.10;;;28.70;24.20;;;;;;2252564;61;20892;-59
2023/06/08 08:58:38;0.00;0.00;0.62;0.00;0.00;0.62;4.73;4.23;;;28.70;24.20;;;;;;2249309;61;20439;-60
2023/06/08 09:01:25;0.00;0.00;0.62;0.00;0.00;0.62;4.73;4.20;;;28.70;24.20;;;;;;2252467;61;20382;-60
2023/06/08 09:04:09;0.00;0.00;0.62;0.00;0.00;0.62;4.93;4.43;;;28.70;24.20;;;;;;2252513;61;20367;-61
2023/06/08 09:06:55;0.00;0.00;0.62;0.00;0.00;0.62;4.87;4.30;;;28.70;24.20;;;;;;2252411;61;20366;-61
2023/06/08 09:10:19;0.00;0.00;0.62;0.00;0.00;0.62;4.40;4.00;;;28.80;24.30;;;;;;2252638;61;20421;-58
2023/06/08 09:13:03;0.00;0.00;0.62;0.00;0.00;0.62;4.70;4.30;;;28.70;24.20;;;;;;2252314;61;20367;-61
2023/06/08 09:15:52;0.00;0.00;0.62;0.00;0.00;0.62;4.80;4.40;;;28.80;24.30;;;;;;2249242;61;20417;-61
2023/06/08 09:18:37;0.00;0.00;0.62;0.00;0.00;0.62;5.90;4.33;;;28.70;24.20;;;;;;2252502;61;20441;-59
2023/06/08 09:21:23;0.00;0.00;0.62;0.00;0.00;0.62;4.23;3.83;;;28.80;24.30;;;;;;2252704;61;20414;-62
2023/06/08 09:24:11;0.00;0.00;0.62;0.00;0.00;0.62;3.90;3.50;;;28.80;24.30;;;;;;2252570;61;20371;-58
2023/06/08 09:26:59;0.00;0.00;0.62;0.00;0.00;0.62;4.60;3.70;;;28.80;24.30;;;;;;2252405;61;20399;-61
2023/06/08 09:29:44;0.00;0.00;0.62;0.00;0.00;0.62;5.10;4.60;;;28.80;24.30;;;;;;2252308;61;20513;-61
2023/06/08 09:32:33;0.00;0.00;0.62;0.00;0.00;0.62;4.67;4.10;;;28.80;24.30;;;;;;2252452;61;20406;-61
2023/06/08 09:35:23;0.00;0.00;0.62;0.00;0.00;0.62;4.93;4.07;;;28.80;24.30;;;;;;2252451;61;20511;-60
2023/06/08 09:38:18;0.00;0.00;0.62;0.00;0.00;0.62;5.80;4.10;;;28.80;24.30;;;;;;2252200;61;20450;-61
2023/06/08 09:41:15;0.00;0.00;0.62;0.00;0.00;0.62;5.20;4.70;;;28.80;24.30;;;;;;2249141;61;20422;-61
2023/06/08 09:44:01;0.00;0.00;0.62;0.00;0.00;0.62;4.40;4.00;;;28.80;24.30;;;;;;2252189;61;20430;-63
2023/06/08 09:46:46;0.00;0.00;0.62;0.00;0.00;0.62;5.20;4.10;;;28.80;24.30;;;;;;2252414;61;20366;-59
2023/06/08 09:49:30;0.00;0.00;0.62;0.00;0.00;0.62;4.43;4.03;;;28.80;24.30;;;;;;2252472;61;20383;-59
2023/06/08 09:52:18;0.00;0.00;0.62;0.00;0.00;0.62;5.43;4.20;;;28.80;24.30;;;;;;2252186;61;20382;-59
2023/06/08 09:55:04;0.00;0.00;0.62;0.00;0.00;0.62;6.03;4.40;;;28.80;24.30;;;;;;2252508;61;20443;-60
2023/06/08 09:57:52;0.00;0.00;0.62;0.00;0.00;0.62;4.83;4.37;;;28.80;24.30;;;;;;2252287;61;20433;-61
2023/06/08 10:00:39;0.00;0.00;0.62;0.00;0.00;0.62;4.13;3.73;;;28.90;24.40;;;;;;2252366;61;20390;-60
2023/06/08 10:03:36;0.00;0.00;0.62;0.00;0.00;0.62;4.33;3.93;;;28.80;24.30;;;;;;2252359;61;20890;-60
2023/06/08 10:06:21;0.00;0.00;0.62;0.00;0.00;0.62;4.80;4.40;;;28.80;24.30;;;;;;2252216;61;20366;-61
2023/06/08 10:09:12;0.00;0.00;0.62;0.00;0.00;0.62;4.80;4.13;;;28.80;24.30;;;;;;2252411;61;20766;-61
2023/06/08 10:11:58;0.00;0.00;0.62;0.00;0.00;0.62;4.63;4.23;;;28.80;24.40;;;;;;2252380;61;20386;-61
2023/06/08 10:14:44;0.00;0.00;0.62;0.00;0.00;0.62;4.50;4.00;;;28.90;24.40;;;;;;2252044;61;20880;-59
2023/06/08 10:17:30;0.00;0.00;0.62;0.00;0.00;0.62;5.03;4.60;;;28.90;24.40;;;;;;2252278;61;20418;-59
2023/06/08 10:20:16;0.00;0.00;0.62;0.00;0.00;0.62;4.67;4.20;;;28.90;24.50;;;;;;2252420;61;20367;-60
2023/06/08 10:23:02;0.00;0.00;0.62;0.00;0.00;0.62;5.17;4.17;;;28.90;24.50;;;;;;2252370;61;20365;-61
2023/06/08 10:25:50;0.00;0.00;0.62;0.00;0.00;0.62;4.10;3.53;;;28.90;24.50;;;;;;2252410;61;20370;-60
2023/06/08 10:28:35;0.00;0.00;0.62;0.00;0.00;0.62;5.27;4.77;;;28.90;24.50;;;;;;2252208;61;20663;-61
2023/06/08 10:31:34;0.00;0.00;0.62;0.00;0.00;0.62;4.93;3.67;;;28.90;24.40;;;;;;2249023;61;20389;-60
2023/06/08 10:34:20;0.00;0.00;0.62;0.00;0.00;0.62;5.27;4.77;;;28.90;24.50;;;;;;2252194;61;20418;-61
2023/06/08 10:37:26;0.00;0.00;0.62;0.00;0.00;0.62;5.20;4.70;;;28.90;24.50;;;;;;2252009;61;20375;-61
2023/06/08 10:40:13;0.00;0.00;0.62;0.00;0.00;0.62;4.67;4.27;;;28.90;24.50;;;;;;2252221;61;20845;-61
2023/06/08 10:42:59;0.00;0.00;0.62;0.00;0.00;0.62;5.13;4.73;;;28.90;24.50;;;;;;2248869;61;20362;-59
2023/06/08 10:45:45;0.00;0.00;0.62;0.00;0.00;0.62;5.07;4.57;;;28.90;24.60;;;;;;2252154;61;20375;-61
2023/06/08 10:48:39;0.00;0.00;0.62;0.00;0.00;0.62;4.50;4.10;;;28.90;24.50;;;;;;2249160;61;20386;-61
2023/06/08 10:51:26;0.00;0.00;0.62;0.00;0.00;0.62;6.23;4.03;;;28.90;24.50;;;;;;2252077;61;20992;-61
2023/06/08 10:54:21;0.00;0.00;0.62;0.00;0.00;0.62;5.70;5.10;;;28.90;24.60;;;;;;2252377;61;20911;-59
2023/06/08 10:57:07;0.00;0.00;0.62;0.00;0.00;0.62;5.00;4.50;;;29.00;24.60;;;;;;2252301;61;20459;-59